Time;durP1;ratioP1;P1;durP2;ratioP2;P2;SDS_P1;SDS_P2;PMS_P1;PMS_P2;Temp;Humidity;BMP_temperature;BMP_pressure;BME280_temperature;BME280_humidity;BME280_pressure;Samples;Min_cycle;Max_cycle;Signal;HPM_P1;HPM_P2
2020/12/18 00:01:55;;;;;;;23.85;8.50;;;;;;;1.06;83.76;102384.18;1733444;82;20950;-91
2020/12/18 00:08:01;;;;;;;32.67;12.45;;;;;;;0.89;83.76;102391.16;1733495;82;21240;-91
2020/12/18 00:10:27;;;;;;;35.73;12.70;;;;;;;0.83;84.40;102387.78;1733572;82;21138;-91
2020/12/18 00:12:54;;;;;;;36.42;11.75;;;;;;;0.86;83.97;102386.15;1733664;82;21257;-92
2020/12/18 00:15:24;;;;;;;36.58;12.80;;;;;;;0.80;84.40;102390.73;1733340;82;21164;-91
2020/12/18 00:21:31;;;;;;;33.60;12.13;;;;;;;0.86;84.47;102387.47;1721560;81;21181;-91
2020/12/18 00:23:56;;;;;;;35.98;13.08;;;;;;;1.03;84.18;102385.81;1721413;81;21705;-91
2020/12/18 00:26:22;;;;;;;34.35;12.85;;;;;;;1.09;84.04;102386.53;1696107;83;21187;-92
2020/12/18 00:28:48;;;;;;;33.30;12.13;;;;;;;1.08;84.14;102390.15;1721298;82;21200;-91
2020/12/18 00:31:15;;;;;;;36.88;12.60;;;;;;;0.98;84.53;102389.91;1721738;83;21208;-92
2020/12/18 00:33:41;;;;;;;34.15;12.93;;;;;;;0.97;84.64;102390.88;1721659;82;21144;-91
2020/12/18 00:36:10;;;;;;;33.20;12.33;;;;;;;1.08;84.64;102386.66;1767060;79;21200;-91
2020/12/18 00:38:36;;;;;;;35.68;12.23;;;;;;;1.12;84.32;102391.53;1779859;79;21443;-92
2020/12/18 00:41:03;;;;;;;36.98;13.35;;;;;;;1.19;84.29;102392.24;1780078;79;20947;-92
2020/12/18 00:43:28;;;;;;;33.88;12.47;;;;;;;1.11;84.36;102392.50;1780344;79;21589;-91
2020/12/18 00:45:54;;;;;;;39.38;13.65;;;;;;;1.13;84.41;102389.20;1779969;79;20962;-92
2020/12/18 00:48:20;;;;;;;35.83;12.35;;;;;;;1.18;84.40;102391.41;1779935;79;20950;-91
2020/12/18 00:50:46;;;;;;;38.60;14.03;;;;;;;1.20;84.27;102389.92;1754115;80;21498;-92
2020/12/18 00:53:12;;;;;;;40.80;13.55;;;;;;;1.18;84.38;102388.77;1779688;79;21227;-92
2020/12/18 00:55:38;;;;;;;38.48;12.65;;;;;;;1.21;84.18;102386.30;1775650;79;20977;-92
2020/12/18 00:58:04;;;;;;;37.80;13.25;;;;;;;1.27;84.20;102383.85;1780174;79;21025;-92
2020/12/18 01:00:30;;;;;;;39.78;12.93;;;;;;;1.35;84.15;102385.72;1780193;79;21110;-92
2020/12/18 01:02:55;;;;;;;35.63;12.33;;;;;;;1.42;83.99;102380.14;1780094;79;21246;-92
2020/12/18 01:05:21;;;;;;;35.63;12.63;;;;;;;1.42;83.89;102377.48;1780022;79;20883;-92
2020/12/18 01:07:47;;;;;;;35.20;11.95;;;;;;;1.38;83.88;102381.42;1779963;79;21147;-92
2020/12/18 01:10:13;;;;;;;35.85;11.55;;;;;;;1.16;84.46;102375.30;1780009;79;20951;-92
2020/12/18 01:12:39;;;;;;;38.73;13.25;;;;;;;1.09;84.62;102378.56;1780037;79;21144;-92
2020/12/18 01:15:05;;;;;;;36.35;12.63;;;;;;;0.94;85.30;102377.41;1791157;79;21343;-91
2020/12/18 01:17:31;;;;;;;42.50;13.85;;;;;;;0.87;85.42;102372.37;1774421;79;21567;-93
2020/12/18 01:19:57;;;;;;;40.30;13.20;;;;;;;0.85;85.53;102371.69;1774097;79;20937;-91
2020/12/18 01:22:23;;;;;;;37.23;12.80;;;;;;;0.87;85.44;102371.05;1796416;79;20988;-92
2020/12/18 01:28:30;;;;;;;42.62;14.58;;;;;;;0.67;86.91;102371.69;1796346;79;21217;-92
2020/12/18 01:30:56;;;;;;;39.13;13.53;;;;;;;0.75;86.52;102366.96;1796255;79;20980;-92
2020/12/18 01:33:21;;;;;;;40.58;14.65;;;;;;;0.84;86.37;102374.84;1796463;79;20932;-92
2020/12/18 01:35:47;;;;;;;39.73;14.13;;;;;;;0.88;86.06;102366.94;1796339;79;21627;-91
2020/12/18 01:38:13;;;;;;;36.50;13.18;;;;;;;0.93;85.73;102369.61;1796231;79;20956;-92
2020/12/18 01:40:39;;;;;;;42.20;14.03;;;;;;;1.02;85.29;102374.84;1796431;79;21233;-90
2020/12/18 01:43:05;;;;;;;39.03;13.22;;;;;;;1.06;85.50;102368.72;1796329;79;21683;-92
2020/12/18 01:45:31;;;;;;;37.63;13.18;;;;;;;1.16;85.47;102365.50;1796478;79;21632;-92
2020/12/18 01:47:57;;;;;;;36.28;12.68;;;;;;;1.24;85.26;102365.57;1779639;79;21160;-91
2020/12/18 01:50:24;;;;;;;44.38;13.10;;;;;;;1.30;85.07;102365.45;1761913;80;20934;-92
2020/12/18 01:52:50;;;;;;;37.98;12.73;;;;;;;1.33;84.83;102362.48;1761920;81;21232;-91
2020/12/18 01:55:17;;;;;;;42.03;13.30;;;;;;;1.36;84.85;102364.33;1761760;80;21207;-91
2020/12/18 01:57:43;;;;;;;36.05;13.00;;;;;;;1.38;84.77;102360.17;1762090;81;21541;-91
2020/12/18 02:00:14;;;;;;;41.88;14.23;;;;;;;1.36;84.38;102360.34;1761985;81;21775;-92
2020/12/18 02:02:40;;;;;;;37.17;13.43;;;;;;;1.39;84.03;102365.02;1761884;81;21139;-92
2020/12/18 02:05:06;;;;;;;45.43;14.38;;;;;;;1.34;84.28;102366.30;1761936;80;21242;-91
2020/12/18 02:07:36;;;;;;;41.08;14.60;;;;;;;1.38;84.34;102358.02;1761922;81;20942;-92
2020/12/18 02:13:42;;;;;;;37.95;12.85;;;;;;;1.43;83.40;102359.72;1761830;80;21200;-92
2020/12/18 02:16:09;;;;;;;35.68;12.82;;;;;;;1.32;84.04;102355.02;1761922;80;20966;-92
2020/12/18 02:18:35;;;;;;;39.25;14.40;;;;;;;1.38;84.23;102360.17;1761767;80;21160;-92
2020/12/18 02:21:03;;;;;;;38.78;13.43;;;;;;;1.41;84.14;102361.69;1740425;81;21631;-92
2020/12/18 02:23:30;;;;;;;50.33;15.75;;;;;;;1.47;83.59;102362.39;1761804;81;21207;-92
2020/12/18 02:26:09;;;;;;;52.17;15.55;;;;;;;1.38;83.64;102365.98;1761935;80;21223;-92
2020/12/18 02:28:40;;;;;;;54.15;16.77;;;;;;;1.45;83.65;102369.70;1761978;80;21620;-92
2020/12/18 02:31:08;;;;;;;51.20;15.98;;;;;;;1.40;83.60;102375.97;1761922;80;21163;-93
2020/12/18 02:33:34;;;;;;;55.25;16.62;;;;;;;1.36;83.64;102370.97;1761854;81;21151;-91
2020/12/18 02:36:01;;;;;;;50.85;16.65;;;;;;;1.39;83.74;102369.83;1762172;81;21541;-94
2020/12/18 02:38:28;;;;;;;48.85;15.95;;;;;;;1.40;83.77;102368.83;1761943;80;21147;-94
2020/12/18 02:40:55;;;;;;;48.98;15.48;;;;;;;1.39;83.68;102371.66;1762000;80;21570;-94
2020/12/18 02:43:22;;;;;;;45.73;14.78;;;;;;;1.36;83.70;102373.63;1761934;81;21790;-95
2020/12/18 02:45:48;;;;;;;42.05;14.03;;;;;;;1.39;83.85;102379.13;1761852;81;21137;-92
2020/12/18 02:48:15;;;;;;;40.48;15.05;;;;;;;1.42;83.79;102379.31;1761690;79;21085;-92
2020/12/18 02:53:57;;;;;;;40.52;15.00;;;;;;;1.16;84.12;102383.26;1761706;81;21128;-92
2020/12/18 02:56:29;;;;;;;45.20;15.00;;;;;;;1.11;84.17;102382.37;1762176;81;21249;-92
2020/12/18 03:02:36;;;;;;;42.03;14.68;;;;;;;1.26;84.22;102378.67;1735924;82;21157;-92
2020/12/18 03:05:03;;;;;;;46.00;15.95;;;;;;;1.38;84.13;102378.77;1735877;81;21590;-92
2020/12/18 03:07:29;;;;;;;43.08;15.08;;;;;;;1.47;84.19;102378.33;1711639;82;21165;-92
2020/12/18 03:09:55;;;;;;;42.30;14.80;;;;;;;1.50;83.79;102378.02;1735879;82;21188;-92
2020/12/18 03:16:01;;;;;;;43.30;14.90;;;;;;;1.56;83.77;102389.38;1736192;81;21157;-92
2020/12/18 03:18:27;;;;;;;43.17;14.78;;;;;;;1.47;83.62;102384.97;1736719;82;20966;-91
2020/12/18 03:20:52;;;;;;;44.77;15.48;;;;;;;1.50;83.71;102380.67;1735797;82;20959;-92
2020/12/18 03:26:59;;;;;;;39.80;14.68;;;;;;;1.57;83.47;102383.89;1735657;82;21216;-93
2020/12/18 03:29:25;;;;;;;39.95;14.50;;;;;;;1.56;83.74;102386.72;1711040;82;21042;-92
2020/12/18 03:31:50;;;;;;;41.30;14.93;;;;;;;1.58;83.74;102390.04;1736049;82;20935;-92
2020/12/18 03:34:16;;;;;;;40.48;14.40;;;;;;;1.52;83.64;102386.67;1735707;82;21694;-92
2020/12/18 03:36:42;;;;;;;48.05;15.95;;;;;;;1.52;83.82;102383.52;1736166;82;21021;-92
2020/12/18 03:39:08;;;;;;;42.62;15.20;;;;;;;1.58;83.85;102380.73;1735723;82;21260;-92
2020/12/18 03:41:35;;;;;;;48.13;15.43;;;;;;;1.54;83.72;102376.73;1736010;82;20923;-92
2020/12/18 03:44:01;;;;;;;46.73;16.57;;;;;;;1.50;83.79;102374.03;1735622;82;21238;-92
2020/12/18 03:46:27;;;;;;;43.02;15.63;;;;;;;1.50;83.73;102374.89;1736090;82;21225;-92
2020/12/18 03:52:35;;;;;;;53.55;16.52;;;;;;;1.53;83.85;102366.61;1734949;81;21211;-92
2020/12/18 03:58:41;;;;;;;46.60;15.80;;;;;;;1.62;83.87;102368.83;1753739;80;21574;-92
2020/12/18 04:01:07;;;;;;;47.62;17.32;;;;;;;1.66;83.84;102372.83;1753781;81;21035;-92
2020/12/18 04:03:33;;;;;;;48.08;16.82;;;;;;;1.64;83.74;102374.80;1753607;81;21198;-92
2020/12/18 04:05:59;;;;;;;46.20;15.65;;;;;;;1.61;83.87;102376.44;1753606;81;20935;-92
2020/12/18 04:08:25;;;;;;;50.25;16.20;;;;;;;1.63;83.96;102377.12;1753685;81;21157;-92
2020/12/18 04:10:51;;;;;;;50.23;16.85;;;;;;;1.65;83.92;102379.14;1753774;81;20927;-92
2020/12/18 04:13:17;;;;;;;48.78;16.62;;;;;;;1.68;83.90;102377.50;1753778;81;21037;-92
2020/12/18 04:15:43;;;;;;;45.00;15.75;;;;;;;1.71;83.85;102377.69;1732354;81;21231;-92
2020/12/18 04:18:10;;;;;;;54.45;17.30;;;;;;;1.74;83.87;102384.02;1753499;80;21703;-92
2020/12/18 04:20:36;;;;;;;57.50;16.65;;;;;;;1.69;83.61;102383.14;1753789;81;21125;-92
2020/12/18 04:23:03;;;;;;;49.35;15.28;;;;;;;1.65;83.67;102387.11;1753755;81;21171;-92
2020/12/18 04:32:50;;;;;;;46.73;15.38;;;;;;;1.71;83.81;102382.50;1753555;81;21129;-92
2020/12/18 04:35:17;;;;;;;43.10;15.30;;;;;;;1.70;83.67;102386.13;1753650;81;21521;-92
2020/12/18 04:37:43;;;;;;;43.68;15.08;;;;;;;1.67;83.16;102387.77;1753607;81;21291;-92
2020/12/18 04:40:09;;;;;;;45.03;15.08;;;;;;;1.64;83.48;102392.56;1753748;81;20950;-92
2020/12/18 04:42:35;;;;;;;43.30;13.75;;;;;;;1.60;83.46;102389.40;1753756;81;22014;-92
2020/12/18 04:45:04;;;;;;;39.42;14.40;;;;;;;1.54;83.58;102382.87;1753643;81;21558;-91
2020/12/18 04:47:32;;;;;;;40.75;15.32;;;;;;;1.54;83.69;102385.53;1727803;82;21152;-91
2020/12/18 04:56:45;;;;;;;40.63;14.43;;;;;;;1.57;83.62;102383.89;1727964;82;21182;-93
2020/12/18 04:59:13;;;;;;;36.70;13.25;;;;;;;1.52;83.49;102390.16;1724000;82;21248;-93
2020/12/18 05:05:19;;;;;;;43.17;15.10;;;;;;;1.55;83.38;102390.34;1727942;82;21282;-93
2020/12/18 05:07:45;;;;;;;40.58;15.25;;;;;;;1.48;83.67;102397.28;1728274;81;21725;-93
2020/12/18 05:10:12;;;;;;;43.33;15.35;;;;;;;1.50;83.69;102393.95;1727777;82;21192;-93
2020/12/18 05:16:23;;;;;;;40.03;13.83;;;;;;;1.48;83.71;102402.10;1727777;83;21189;-93
2020/12/18 05:18:50;;;;;;;43.17;14.93;;;;;;;1.50;83.86;102400.13;1727733;82;21564;-93
2020/12/18 05:21:18;;;;;;;44.48;14.68;;;;;;;1.53;83.67;102404.27;1727774;83;21201;-92
2020/12/18 05:23:46;;;;;;;49.13;15.68;;;;;;;1.54;83.80;102404.63;1728153;82;21223;-93
2020/12/18 05:26:14;;;;;;;40.95;14.47;;;;;;;1.53;83.72;102409.59;1728059;82;21161;-92
2020/12/18 05:32:21;;;;;;;43.52;15.45;;;;;;;1.54;83.53;102414.76;1727343;83;21233;-92
2020/12/18 05:34:47;;;;;;;47.73;15.65;;;;;;;1.47;83.65;102412.86;1727787;83;21164;-92
2020/12/18 05:44:34;;;;;;;43.17;15.03;;;;;;;1.51;83.63;102414.24;1742229;81;21653;-92
2020/12/18 05:47:09;;;;;;;48.73;15.98;;;;;;;1.50;83.53;102412.09;1753354;80;20962;-92
2020/12/18 05:49:40;;;;;;;45.65;14.18;;;;;;;1.49;83.64;102413.55;1753628;81;21585;-90
2020/12/18 05:52:09;;;;;;;43.68;15.78;;;;;;;1.55;83.54;102418.25;1757791;79;21197;-89
2020/12/18 05:54:37;;;;;;;46.20;15.00;;;;;;;1.51;83.63;102415.57;1792318;79;21656;-89
2020/12/18 05:57:16;;;;;;;48.08;15.88;;;;;;;1.56;83.62;102423.92;1796193;79;21143;-90
2020/12/18 05:59:46;;;;;;;47.80;16.07;;;;;;;1.54;83.74;102418.75;1743670;82;21636;-90
2020/12/18 06:02:16;;;;;;;61.53;21.77;;;;;;;1.52;83.86;102417.23;1743813;82;21270;-90
2020/12/18 06:04:44;;;;;;;68.02;23.57;;;;;;;1.50;83.95;102412.09;1743880;82;21535;-90
2020/12/18 06:07:11;;;;;;;68.10;21.70;;;;;;;1.55;83.83;102424.39;1743890;82;21192;-90
2020/12/18 06:09:38;;;;;;;52.75;18.48;;;;;;;1.54;83.96;102423.23;1743672;82;21121;-89
2020/12/18 06:12:07;;;;;;;55.70;18.98;;;;;;;1.57;83.90;102422.92;1743821;82;21173;-90
2020/12/18 06:14:34;;;;;;;53.23;15.98;;;;;;;1.56;83.84;102420.77;1635199;87;21112;-89
2020/12/18 06:17:08;;;;;;;42.45;15.08;;;;;;;1.61;83.96;102426.09;1635309;87;21581;-90
2020/12/18 06:19:42;;;;;;;40.05;14.18;;;;;;;1.65;83.95;102424.78;1627712;87;21119;-90
2020/12/18 06:22:12;;;;;;;37.93;13.43;;;;;;;1.66;83.98;102429.95;1635329;87;21644;-90
2020/12/18 06:24:45;;;;;;;41.60;13.60;;;;;;;1.72;83.89;102435.98;1635150;87;21219;-90
2020/12/18 06:27:16;;;;;;;38.63;13.28;;;;;;;1.74;83.79;102437.16;1606552;88;21263;-90
2020/12/18 06:29:44;;;;;;;39.85;13.38;;;;;;;1.72;83.70;102445.28;1606371;88;21949;-90
2020/12/18 06:32:30;;;;;;;37.98;12.63;;;;;;;1.73;83.88;102437.63;1606245;88;21646;-89
2020/12/18 06:35:18;;;;;;;42.10;13.88;;;;;;;1.73;83.81;102446.94;1606422;88;21197;-90
2020/12/18 06:37:44;;;;;;;33.30;12.23;;;;;;;1.79;83.92;102448.14;1551719;91;21262;-90
2020/12/18 06:40:18;;;;;;;34.18;11.97;;;;;;;1.88;83.61;102445.04;1523490;94;21707;-89
2020/12/18 06:42:46;;;;;;;31.93;11.28;;;;;;;1.88;83.29;102453.84;1472892;96;21228;-90
2020/12/18 06:45:13;;;;;;;34.20;12.10;;;;;;;1.85;83.44;102454.16;1474604;97;21260;-89
2020/12/18 06:47:39;;;;;;;29.42;11.33;;;;;;;1.84;83.50;102449.02;1501276;95;21294;-89
2020/12/18 06:50:09;;;;;;;32.80;11.80;;;;;;;1.85;83.66;102452.83;1474775;97;21617;-89
2020/12/18 06:52:57;;;;;;;32.83;11.05;;;;;;;1.86;83.52;102451.86;1475348;96;21164;-89
2020/12/18 06:55:32;;;;;;;31.23;11.80;;;;;;;1.89;83.52;102450.72;1479008;96;21414;-89
2020/12/18 06:58:13;;;;;;;39.88;13.48;;;;;;;1.95;83.29;102458.89;1488196;95;21362;-89
2020/12/18 07:00:57;;;;;;;33.55;12.23;;;;;;;1.92;83.34;102462.37;1474249;96;21224;-89
2020/12/18 07:03:45;;;;;;;37.23;13.85;;;;;;;1.98;83.27;102463.89;1475645;96;21302;-88
2020/12/18 07:08:56;;;;;;;47.93;16.57;;;;;;;1.95;83.42;102469.53;1415137;99;21171;-91
2020/12/18 07:11:23;;;;;;;49.38;16.12;;;;;;;2.03;83.40;102468.76;1443477;98;21708;-89
2020/12/18 07:13:52;;;;;;;46.28;17.98;;;;;;;2.02;83.22;102465.23;1450510;95;21230;-89
2020/12/18 07:16:28;;;;;;;38.80;14.68;;;;;;;2.07;83.38;102461.30;1501590;95;21142;-90
2020/12/18 07:18:59;;;;;;;36.20;12.28;;;;;;;2.03;83.12;102471.41;1570100;91;21301;-91
2020/12/18 07:21:25;;;;;;;36.48;12.55;;;;;;;2.15;83.19;102466.16;1620756;88;21252;-91
2020/12/18 07:23:52;;;;;;;41.65;13.18;;;;;;;2.15;83.06;102475.47;1620270;88;21265;-91
2020/12/18 07:26:20;;;;;;;30.90;12.30;;;;;;;2.14;82.81;102470.30;1619977;87;21189;-89
2020/12/18 07:28:48;;;;;;;34.48;12.85;;;;;;;2.18;82.84;102471.67;1598996;88;21201;-93
2020/12/18 07:31:24;;;;;;;35.75;12.43;;;;;;;2.18;83.06;102472.50;1620771;87;21232;-90
2020/12/18 07:33:58;;;;;;;35.92;12.75;;;;;;;2.18;82.96;102473.83;1621110;87;21251;-90
2020/12/18 07:36:27;;;;;;;31.77;11.55;;;;;;;2.20;82.73;102470.99;1620739;87;21276;-88
2020/12/18 07:38:58;;;;;;;27.98;9.98;;;;;;;2.34;82.78;102473.06;1556507;91;21718;-90
2020/12/18 07:41:29;;;;;;;25.95;10.23;;;;;;;2.27;82.76;102474.20;1556297;91;21251;-89
2020/12/18 07:44:09;;;;;;;31.25;12.28;;;;;;;2.36;82.59;102472.92;1549442;92;21224;-89
2020/12/18 07:46:36;;;;;;;34.15;12.28;;;;;;;2.33;82.41;102475.40;1549662;92;21260;-88
2020/12/18 07:49:10;;;;;;;31.87;11.83;;;;;;;2.40;82.74;102474.27;1549481;92;21559;-88
2020/12/18 07:51:39;;;;;;;29.87;11.03;;;;;;;2.42;82.48;102478.94;1496137;94;21653;-88
2020/12/18 07:54:07;;;;;;;28.67;11.40;;;;;;;2.54;82.31;102479.48;1512747;92;21274;-86
2020/12/18 07:56:33;;;;;;;29.42;10.93;;;;;;;2.49;82.34;102479.45;1519907;92;21633;-87
2020/12/18 07:59:06;;;;;;;33.95;12.37;;;;;;;2.58;82.23;102484.81;1519945;92;21184;-86
2020/12/18 08:01:34;;;;;;;27.70;11.25;;;;;;;2.55;81.96;102483.30;1519920;92;21211;-86
2020/12/18 08:04:10;;;;;;;30.00;12.05;;;;;;;2.56;82.07;102480.14;1519838;92;21248;-89
2020/12/18 08:06:38;;;;;;;33.23;11.85;;;;;;;2.66;82.13;102477.70;1599799;88;21162;-86
2020/12/18 08:09:07;;;;;;;34.30;12.58;;;;;;;2.73;82.13;102481.37;1614593;88;21262;-86
2020/12/18 08:11:45;;;;;;;29.77;11.30;;;;;;;2.65;81.15;102477.37;1614858;88;21262;-87
2020/12/18 08:14:12;;;;;;;29.27;11.28;;;;;;;2.75;81.95;102476.41;1589097;90;21191;-90
2020/12/18 08:16:38;;;;;;;32.13;12.18;;;;;;;2.81;81.88;102476.58;1589258;90;21190;-87
2020/12/18 08:19:08;;;;;;;34.83;11.70;;;;;;;2.88;80.57;102477.62;1588981;90;21623;-88
2020/12/18 08:21:37;;;;;;;32.53;12.15;;;;;;;2.58;79.96;102484.31;1568911;90;21220;-87
2020/12/18 08:27:01;;;;;;;32.35;12.60;;;;;;;2.88;81.31;102482.08;1540468;93;21279;-88
2020/12/18 08:31:59;;;;;;;36.30;14.45;;;;;;;2.83;81.06;102477.27;1503225;95;21235;-87
2020/12/18 08:34:31;;;;;;;35.05;13.13;;;;;;;2.86;80.95;102478.27;1481689;96;21280;-88
2020/12/18 08:36:59;;;;;;;28.30;11.68;;;;;;;2.91;80.99;102476.44;1468448;96;21460;-87
2020/12/18 08:39:33;;;;;;;31.45;11.95;;;;;;;3.06;81.07;102467.31;1468032;97;21262;-87
2020/12/18 08:42:01;;;;;;;29.45;10.38;;;;;;;2.91;80.60;102466.64;1468067;97;21235;-87
2020/12/18 08:44:38;;;;;;;23.65;9.65;;;;;;;3.21;80.72;102459.51;1468006;96;21760;-87
2020/12/18 08:47:23;;;;;;;69.40;27.37;;;;;;;3.16;80.62;102454.19;1502668;94;21200;-87
2020/12/18 08:49:52;;;;;;;37.38;16.07;;;;;;;3.05;80.44;102458.49;1465903;97;21443;-88
2020/12/18 08:52:27;;;;;;;29.42;12.55;;;;;;;2.96;80.23;102468.30;1465952;97;21671;-89
2020/12/18 08:55:07;;;;;;;40.33;17.27;;;;;;;3.04;80.68;102456.84;1473499;97;21217;-88
2020/12/18 08:57:36;;;;;;;28.20;11.48;;;;;;;3.15;80.98;102448.53;1474085;97;21309;-89
2020/12/18 09:00:18;;;;;;;28.10;11.60;;;;;;;3.34;80.91;102454.03;1474132;97;21305;-88
2020/12/18 09:02:56;;;;;;;27.35;11.15;;;;;;;3.46;80.99;102451.05;1474082;97;21255;-89
2020/12/18 09:05:29;;;;;;;30.60;10.72;;;;;;;3.49;80.70;102448.88;1472743;97;21339;-88
2020/12/18 09:07:59;;;;;;;31.77;12.23;;;;;;;3.58;80.34;102449.70;1474354;97;21168;-89
2020/12/18 09:10:47;;;;;;;31.42;13.15;;;;;;;3.52;80.12;102445.05;1493682;92;21388;-89
2020/12/18 09:13:17;;;;;;;27.45;10.75;;;;;;;3.52;80.00;102435.72;1548546;92;21195;-89
2020/12/18 09:15:59;;;;;;;27.10;11.30;;;;;;;3.54;79.85;102439.05;1528040;92;21876;-88
2020/12/18 09:18:26;;;;;;;29.57;11.35;;;;;;;3.59;79.90;102436.22;1535189;93;21327;-88
2020/12/18 09:20:54;;;;;;;26.45;11.22;;;;;;;3.34;79.45;102435.38;1535350;92;21668;-86
2020/12/18 09:23:32;;;;;;;29.87;11.65;;;;;;;3.49;79.68;102432.05;1532409;93;21309;-86
2020/12/18 09:26:00;;;;;;;32.35;11.63;;;;;;;3.44;79.16;102435.20;1571660;89;21186;-87
2020/12/18 09:28:27;;;;;;;28.80;11.75;;;;;;;3.47;79.60;102430.05;1536519;92;21223;-89
2020/12/18 09:30:58;;;;;;;26.82;10.85;;;;;;;3.54;79.69;102433.72;1541964;92;21124;-88
2020/12/18 09:33:27;;;;;;;31.07;12.00;;;;;;;3.47;79.10;102438.05;1539340;93;21268;-89
2020/12/18 09:36:00;;;;;;;26.30;11.35;;;;;;;3.45;78.50;102432.89;1540404;91;21358;-89
2020/12/18 09:38:33;;;;;;;28.12;11.20;;;;;;;3.59;79.41;102437.55;1602485;88;21242;-87
2020/12/18 09:41:04;;;;;;;28.87;11.80;;;;;;;3.65;79.44;102433.39;1600019;89;25247;-86
2020/12/18 09:43:29;;;;;;;31.70;11.30;;;;;;;3.60;78.52;102433.05;1568948;90;21638;-86
2020/12/18 09:45:57;;;;;;;29.15;11.78;;;;;;;3.59;78.48;102439.39;1548002;91;21036;-87
2020/12/18 09:48:23;;;;;;;25.90;10.75;;;;;;;3.60;79.10;102436.55;1557641;91;21261;-88
2020/12/18 09:50:52;;;;;;;32.33;12.50;;;;;;;3.64;78.50;102433.03;1559555;91;22630;-87
2020/12/18 09:53:17;;;;;;;25.48;11.10;;;;;;;3.73;78.76;102434.69;1557398;88;21845;-87
2020/12/18 09:55:43;;;;;;;43.78;18.35;;;;;;;3.66;78.48;102432.38;1565070;89;20980;-88
2020/12/18 09:58:10;;;;;;;32.28;13.35;;;;;;;3.59;77.98;102428.73;1561662;89;21610;-87
2020/12/18 10:00:35;;;;;;;29.50;12.33;;;;;;;3.62;78.34;102431.06;1561696;90;21148;-88
2020/12/18 10:03:01;;;;;;;33.83;12.15;;;;;;;3.62;78.09;102433.72;1561638;89;21148;-87
2020/12/18 10:05:27;;;;;;;31.27;11.20;;;;;;;3.63;78.31;102434.88;1542380;90;21145;-87
2020/12/18 10:07:53;;;;;;;32.08;12.07;;;;;;;3.72;78.40;102430.88;1581717;89;21005;-87
2020/12/18 10:10:20;;;;;;;28.52;11.18;;;;;;;3.67;78.25;102429.20;1582497;90;21182;-88
2020/12/18 10:12:46;;;;;;;34.08;12.28;;;;;;;3.66;78.06;102423.05;1564782;90;21826;-87
2020/12/18 10:15:12;;;;;;;28.90;11.90;;;;;;;3.63;77.92;102426.05;1608381;85;21317;-87
2020/12/18 10:17:38;;;;;;;31.37;12.23;;;;;;;3.64;77.69;102420.53;1646967;87;21121;-87
2020/12/18 10:20:04;;;;;;;29.48;11.35;;;;;;;3.74;76.80;102416.37;1620160;88;21789;-87
2020/12/18 10:22:30;;;;;;;26.12;10.90;;;;;;;3.56;76.99;102419.70;1620412;88;21149;-87
2020/12/18 10:24:56;;;;;;;34.67;12.58;;;;;;;3.54;76.75;102417.23;1620271;88;21036;-87
2020/12/18 10:27:22;;;;;;;41.28;15.78;;;;;;;3.37;77.30;102410.23;1620311;88;21140;-87
2020/12/18 10:29:48;;;;;;;31.27;12.18;;;;;;;3.37;77.30;102410.23;1622759;86;21441;-88
2020/12/18 10:32:14;;;;;;;38.92;16.32;;;;;;;3.54;76.68;102409.23;1655987;85;21217;-87
2020/12/18 10:34:40;;;;;;;49.70;19.37;;;;;;;3.43;77.01;102408.74;1665350;85;21079;-88
2020/12/18 10:37:06;;;;;;;43.50;16.77;;;;;;;3.44;77.44;102405.06;1661255;86;20973;-87
2020/12/18 10:39:32;;;;;;;31.40;12.85;;;;;;;3.48;77.56;102408.57;1667242;83;21020;-88
2020/12/18 10:42:02;;;;;;;35.52;13.98;;;;;;;3.57;77.28;102403.56;1701797;84;21137;-88
2020/12/18 10:44:27;;;;;;;50.55;18.37;;;;;;;3.46;76.69;102401.23;1732418;80;21736;-87
2020/12/18 10:46:53;;;;;;;51.33;16.40;;;;;;;3.57;77.24;102402.23;1777277;80;20900;-87
2020/12/18 10:49:19;;;;;;;37.63;13.68;;;;;;;3.49;76.98;102402.73;1777416;80;21002;-87
2020/12/18 10:51:46;;;;;;;37.98;13.45;;;;;;;3.56;77.12;102401.05;1784714;78;21052;-87
2020/12/18 10:54:13;;;;;;;46.92;15.50;;;;;;;3.51;76.76;102400.23;1796473;79;21076;-88
2020/12/18 10:56:44;;;;;;;67.27;21.52;;;;;;;3.37;76.78;102396.41;1796454;79;21151;-88
2020/12/18 10:59:11;;;;;;;70.35;21.95;;;;;;;3.49;77.12;102399.56;1796401;79;21571;-89
2020/12/18 11:01:38;;;;;;;49.25;16.87;;;;;;;3.46;77.18;102398.57;1796398;79;21146;-89
2020/12/18 11:04:06;;;;;;;58.10;19.02;;;;;;;3.56;77.16;102396.58;1796589;79;21095;-89
2020/12/18 11:06:32;;;;;;;38.92;14.53;;;;;;;3.57;77.21;102400.07;1814590;78;21943;-89
2020/12/18 11:08:58;;;;;;;50.30;18.77;;;;;;;3.47;76.59;102394.92;1781896;78;21177;-89
2020/12/18 11:11:29;;;;;;;40.05;15.00;;;;;;;3.53;77.15;102398.72;1768592;81;21127;-89
2020/12/18 11:13:52;;;;;;;48.92;18.55;;;;;;;3.58;77.13;102396.39;1753841;81;21157;-89
2020/12/18 11:16:18;;;;;;;44.40;14.87;;;;;;;3.56;76.68;102393.91;1768451;80;21120;-89
2020/12/18 11:18:46;;;;;;;38.55;14.23;;;;;;;3.57;76.67;102390.23;1768410;80;21170;-90
2020/12/18 11:21:12;;;;;;;70.00;26.02;;;;;;;3.53;75.71;102397.39;1768503;79;21166;-89
2020/12/18 11:23:38;;;;;;;42.70;15.90;;;;;;;3.52;76.26;102398.40;1768603;81;21244;-89
2020/12/18 11:26:04;;;;;;;59.38;23.27;;;;;;;3.46;76.88;102397.23;1768613;80;21006;-89
2020/12/18 11:28:31;;;;;;;39.98;15.08;;;;;;;3.34;75.94;102399.41;1768462;79;21142;-89
2020/12/18 11:30:57;;;;;;;34.23;12.82;;;;;;;3.38;76.64;102393.23;1767704;81;21986;-89
2020/12/18 11:33:24;;;;;;;36.42;14.23;;;;;;;3.37;76.66;102397.74;1764000;81;21136;-90
2020/12/18 11:35:50;;;;;;;47.00;16.12;;;;;;;3.43;76.71;102397.58;1767652;81;21208;-90
2020/12/18 11:38:17;;;;;;;38.48;14.73;;;;;;;3.40;76.84;102389.41;1767660;81;21466;-89
2020/12/18 11:40:43;;;;;;;36.40;14.43;;;;;;;3.34;76.66;102395.92;1767826;79;21167;-88
2020/12/18 11:43:09;;;;;;;38.28;14.05;;;;;;;3.34;76.88;102395.41;1767805;80;21146;-88
2020/12/18 11:45:35;;;;;;;42.38;14.63;;;;;;;3.33;76.76;102393.76;1767767;80;21578;-89
2020/12/18 11:48:01;;;;;;;40.10;14.50;;;;;;;3.36;76.91;102388.59;1767562;81;21157;-89
2020/12/18 11:52:59;;;;;;;45.28;15.80;;;;;;;3.38;76.78;102386.58;1739249;81;21169;-88
2020/12/18 11:55:30;;;;;;;49.00;17.30;;;;;;;3.46;76.44;102389.75;1725141;81;21332;-89
2020/12/18 11:57:55;;;;;;;48.13;17.67;;;;;;;3.46;75.53;102386.58;1721145;81;21248;-88
2020/12/18 12:00:22;;;;;;;69.40;24.10;;;;;;;3.38;75.25;102388.77;1721177;81;21568;-89
2020/12/18 12:02:50;;;;;;;47.20;16.12;;;;;;;3.25;75.14;102387.59;1741090;81;21677;-87
2020/12/18 12:05:21;;;;;;;47.62;17.32;;;;;;;3.14;75.42;102388.75;1751092;81;21080;-89
2020/12/18 12:07:48;;;;;;;47.23;16.97;;;;;;;3.09;75.42;102388.41;1751025;81;21223;-90
2020/12/18 12:10:16;;;;;;;44.93;16.17;;;;;;;2.93;76.05;102390.57;1750831;81;21156;-89
2020/12/18 12:12:44;;;;;;;51.95;17.40;;;;;;;2.90;76.14;102392.23;1751107;81;21218;-90
2020/12/18 12:15:11;;;;;;;46.00;16.45;;;;;;;2.79;76.89;102389.37;1751034;81;21215;-89
2020/12/18 12:17:37;;;;;;;50.48;17.65;;;;;;;2.82;76.99;102387.72;1751042;81;21148;-90
2020/12/18 12:20:04;;;;;;;56.05;18.12;;;;;;;2.84;76.99;102395.55;1746893;81;22053;-90
2020/12/18 12:22:30;;;;;;;49.75;18.62;;;;;;;2.82;77.07;102394.88;1751299;81;21092;-89
2020/12/18 12:24:56;;;;;;;55.75;16.42;;;;;;;2.78;77.43;102382.91;1748189;81;21060;-89
2020/12/18 12:27:26;;;;;;;51.37;17.05;;;;;;;2.77;77.28;102391.39;1748481;81;21230;-89
2020/12/18 12:29:54;;;;;;;64.90;22.62;;;;;;;2.77;77.49;102385.24;1731605;81;21147;-89
2020/12/18 12:32:21;;;;;;;69.05;22.55;;;;;;;2.70;77.32;102387.70;1721488;81;21418;-89
2020/12/18 12:34:47;;;;;;;58.02;17.92;;;;;;;2.68;77.55;102392.37;1721256;81;21241;-88
2020/12/18 12:37:13;;;;;;;62.40;21.70;;;;;;;2.79;77.71;102388.55;1721286;81;21183;-90
2020/12/18 12:39:40;;;;;;;58.48;20.27;;;;;;;2.80;77.47;102393.73;1721256;81;20922;-89
2020/12/18 12:42:07;;;;;;;69.50;24.50;;;;;;;2.85;77.38;102394.55;1737959;80;21642;-89